sensor_id;sensor_type;location;lat;lon;timestamp;temperature;humidity
21682;DHT22;11002;48.256;10.084;2023-03-14T00:01:09;9.60;99.90
21682;DHT22;11002;48.256;10.084;2023-03-14T00:03:37;9.20;99.90
21682;DHT22;11002;48.256;10.084;2023-03-14T00:10:14;9.30;99.90
21682;DHT22;11002;48.256;10.084;2023-03-14T00:12:42;9.10;99.90
21682;DHT22;11002;48.256;10.084;2023-03-14T00:15:10;9.10;99.90
21682;DHT22;11002;48.256;10.084;2023-03-14T00:17:38;8.90;99.90
21682;DHT22;11002;48.256;10.084;2023-03-14T00:20:07;8.80;99.90
21682;DHT22;11002;48.256;10.084;2023-03-14T00:22:36;8.70;99.90
21682;DHT22;11002;48.256;10.084;2023-03-14T00:25:05;8.50;99.90
21682;DHT22;11002;48.256;10.084;2023-03-14T00:27:34;8.60;99.90
21682;DHT22;11002;48.256;10.084;2023-03-14T00:30:03;8.40;99.90
21682;DHT22;11002;48.256;10.084;2023-03-14T00:32:30;8.60;99.90
21682;DHT22;11002;48.256;10.084;2023-03-14T00:34:58;8.40;99.90
21682;DHT22;11002;48.256;10.084;2023-03-14T00:37:26;8.30;99.90
21682;DHT22;11002;48.256;10.084;2023-03-14T00:39:54;8.50;99.90
21682;DHT22;11002;48.256;10.084;2023-03-14T00:42:21;8.30;99.90
21682;DHT22;11002;48.256;10.084;2023-03-14T00:44:51;8.60;99.90
21682;DHT22;11002;48.256;10.084;2023-03-14T00:47:19;8.50;99.90
21682;DHT22;11002;48.256;10.084;2023-03-14T00:49:47;8.40;99.90
21682;DHT22;11002;48.256;10.084;2023-03-14T00:52:14;8.30;99.90
21682;DHT22;11002;48.256;10.084;2023-03-14T00:54:41;8.40;99.90
21682;DHT22;11002;48.256;10.084;2023-03-14T00:57:09;8.40;99.90
21682;DHT22;11002;48.256;10.084;2023-03-14T00:59:36;8.30;99.90
21682;DHT22;11002;48.256;10.084;2023-03-14T01:02:05;8.30;99.90
21682;DHT22;11002;48.256;10.084;2023-03-14T01:04:32;8.40;99.90
21682;DHT22;11002;48.256;10.084;2023-03-14T01:07:00;8.60;99.90
21682;DHT22;11002;48.256;10.084;2023-03-14T01:09:28;8.60;99.90
21682;DHT22;11002;48.256;10.084;2023-03-14T01:11:55;8.70;99.90
21682;DHT22;11002;48.256;10.084;2023-03-14T01:14:23;8.50;99.90
21682;DHT22;11002;48.256;10.084;2023-03-14T01:16:50;8.50;99.90
21682;DHT22;11002;48.256;10.084;2023-03-14T01:19:19;8.60;99.90
21682;DHT22;11002;48.256;10.084;2023-03-14T01:21:46;8.70;99.90
21682;DHT22;11002;48.256;10.084;2023-03-14T01:24:14;8.70;99.90
21682;DHT22;11002;48.256;10.084;2023-03-14T01:26:42;8.40;99.90
21682;DHT22;11002;48.256;10.084;2023-03-14T01:29:09;8.60;99.90
21682;DHT22;11002;48.256;10.084;2023-03-14T01:31:38;8.50;99.90
21682;DHT22;11002;48.256;10.084;2023-03-14T01:34:06;8.60;99.90
21682;DHT22;11002;48.256;10.084;2023-03-14T01:36:34;8.50;99.90
21682;DHT22;11002;48.256;10.084;2023-03-14T01:39:02;8.60;99.90
21682;DHT22;11002;48.256;10.084;2023-03-14T01:41:32;8.60;99.90
21682;DHT22;11002;48.256;10.084;2023-03-14T01:43:59;8.70;99.90
21682;DHT22;11002;48.256;10.084;2023-03-14T01:46:36;8.70;99.90
21682;DHT22;11002;48.256;10.084;2023-03-14T01:49:15;8.60;99.90
21682;DHT22;11002;48.256;10.084;2023-03-14T01:51:56;8.80;99.90
21682;DHT22;11002;48.256;10.084;2023-03-14T01:54:28;8.60;99.90
21682;DHT22;11002;48.256;10.084;2023-03-14T01:57:03;8.60;99.90
21682;DHT22;11002;48.256;10.084;2023-03-14T01:59:31;8.70;99.90
21682;DHT22;11002;48.256;10.084;2023-03-14T02:02:00;8.80;99.90
21682;DHT22;11002;48.256;10.084;2023-03-14T02:04:33;8.80;99.90
21682;DHT22;11002;48.256;10.084;2023-03-14T02:07:10;8.60;99.90
21682;DHT22;11002;48.256;10.084;2023-03-14T02:09:46;8.70;99.90
21682;DHT22;11002;48.256;10.084;2023-03-14T02:12:22;8.60;99.90
21682;DHT22;11002;48.256;10.084;2023-03-14T02:15:16;8.60;99.90
21682;DHT22;11002;48.256;10.084;2023-03-14T02:17:58;8.50;99.90
21682;DHT22;11002;48.256;10.084;2023-03-14T02:20:42;8.70;99.90
21682;DHT22;11002;48.256;10.084;2023-03-14T02:23:19;8.50;99.90
21682;DHT22;11002;48.256;10.084;2023-03-14T02:25:53;8.80;99.90
21682;DHT22;11002;48.256;10.084;2023-03-14T02:28:24;8.60;99.90
21682;DHT22;11002;48.256;10.084;2023-03-14T02:30:55;8.60;99.90
21682;DHT22;11002;48.256;10.084;2023-03-14T02:33:23;8.60;99.90
21682;DHT22;11002;48.256;10.084;2023-03-14T02:35:53;8.60;99.90
21682;DHT22;11002;48.256;10.084;2023-03-14T02:38:27;8.50;99.90
21682;DHT22;11002;48.256;10.084;2023-03-14T02:40:56;8.40;99.90
21682;DHT22;11002;48.256;10.084;2023-03-14T02:43:26;8.70;99.90
21682;DHT22;11002;48.256;10.084;2023-03-14T02:46:00;8.50;99.90
21682;DHT22;11002;48.256;10.084;2023-03-14T02:48:31;8.40;99.90
21682;DHT22;11002;48.256;10.084;2023-03-14T02:51:01;8.70;99.90
21682;DHT22;11002;48.256;10.084;2023-03-14T02:53:31;8.50;99.90
21682;DHT22;11002;48.256;10.084;2023-03-14T02:56:03;8.30;99.90
21682;DHT22;11002;48.256;10.084;2023-03-14T02:58:35;8.30;99.90
21682;DHT22;11002;48.256;10.084;2023-03-14T03:01:16;8.50;99.90
21682;DHT22;11002;48.256;10.084;2023-03-14T03:03:43;8.40;99.90
21682;DHT22;11002;48.256;10.084;2023-03-14T03:06:11;8.30;99.90
21682;DHT22;11002;48.256;10.084;2023-03-14T03:08:39;8.40;99.90
21682;DHT22;11002;48.256;10.084;2023-03-14T03:11:07;8.40;99.90
21682;DHT22;11002;48.256;10.084;2023-03-14T03:13:36;8.30;99.90
21682;DHT22;11002;48.256;10.084;2023-03-14T03:16:06;8.40;99.70
21682;DHT22;11002;48.256;10.084;2023-03-14T03:18:34;8.50;99.30
21682;DHT22;11002;48.256;10.084;2023-03-14T03:21:03;8.30;98.60
21682;DHT22;11002;48.256;10.084;2023-03-14T03:23:31;8.30;97.80
21682;DHT22;11002;48.256;10.084;2023-03-14T03:25:58;8.40;96.80
21682;DHT22;11002;48.256;10.084;2023-03-14T03:28:26;8.40;95.90
21682;DHT22;11002;48.256;10.084;2023-03-14T03:30:55;8.10;95.90
21682;DHT22;11002;48.256;10.084;2023-03-14T03:33:23;8.30;95.80
21682;DHT22;11002;48.256;10.084;2023-03-14T03:35:51;8.30;96.20
21682;DHT22;11002;48.256;10.084;2023-03-14T03:38:24;8.40;95.90
21682;DHT22;11002;48.256;10.084;2023-03-14T03:40:54;8.20;95.70
21682;DHT22;11002;48.256;10.084;2023-03-14T03:43:24;8.10;95.80
21682;DHT22;11002;48.256;10.084;2023-03-14T03:45:52;8.30;95.90
21682;DHT22;11002;48.256;10.084;2023-03-14T03:48:21;8.10;95.80
21682;DHT22;11002;48.256;10.084;2023-03-14T03:50:49;8.20;95.80
21682;DHT22;11002;48.256;10.084;2023-03-14T03:53:20;8.10;95.60
21682;DHT22;11002;48.256;10.084;2023-03-14T03:55:48;8.00;95.70
21682;DHT22;11002;48.256;10.084;2023-03-14T03:58:15;8.20;95.80
21682;DHT22;11002;48.256;10.084;2023-03-14T04:00:43;8.10;95.80
21682;DHT22;11002;48.256;10.084;2023-03-14T04:03:10;8.00;95.70
21682;DHT22;11002;48.256;10.084;2023-03-14T04:05:39;8.10;95.80
21682;DHT22;11002;48.256;10.084;2023-03-14T04:08:08;8.20;95.80
21682;DHT22;11002;48.256;10.084;2023-03-14T04:10:37;8.00;95.70
21682;DHT22;11002;48.256;10.084;2023-03-14T04:13:10;7.90;95.70
21682;DHT22;11002;48.256;10.084;2023-03-14T04:15:39;8.00;95.00
21682;DHT22;11002;48.256;10.084;2023-03-14T04:18:12;7.90;94.80
21682;DHT22;11002;48.256;10.084;2023-03-14T04:20:42;8.10;94.90
21682;DHT22;11002;48.256;10.084;2023-03-14T04:23:11;8.20;94.90
21682;DHT22;11002;48.256;10.084;2023-03-14T04:25:39;7.90;93.90
21682;DHT22;11002;48.256;10.084;2023-03-14T04:28:06;8.00;92.90
21682;DHT22;11002;48.256;10.084;2023-03-14T04:30:33;8.20;93.00
21682;DHT22;11002;48.256;10.084;2023-03-14T04:33:07;8.00;92.50
21682;DHT22;11002;48.256;10.084;2023-03-14T04:35:39;8.00;92.40
21682;DHT22;11002;48.256;10.084;2023-03-14T04:38:12;8.20;91.90
21682;DHT22;11002;48.256;10.084;2023-03-14T04:40:43;7.90;91.10
21682;DHT22;11002;48.256;10.084;2023-03-14T04:43:12;7.90;90.80
21682;DHT22;11002;48.256;10.084;2023-03-14T04:45:46;8.10;90.80
21682;DHT22;11002;48.256;10.084;2023-03-14T04:48:14;7.90;90.10
21682;DHT22;11002;48.256;10.084;2023-03-14T04:50:43;7.90;90.00
21682;DHT22;11002;48.256;10.084;2023-03-14T04:53:14;8.10;88.50
21682;DHT22;11002;48.256;10.084;2023-03-14T04:55:47;7.90;87.40
21682;DHT22;11002;48.256;10.084;2023-03-14T04:58:15;8.00;86.20
21682;DHT22;11002;48.256;10.084;2023-03-14T05:00:44;8.00;86.50
21682;DHT22;11002;48.256;10.084;2023-03-14T05:03:38;7.80;85.90
21682;DHT22;11002;48.256;10.084;2023-03-14T05:06:28;8.00;84.80
21682;DHT22;11002;48.256;10.084;2023-03-14T05:09:20;8.10;84.30
21682;DHT22;11002;48.256;10.084;2023-03-14T05:12:12;8.00;84.00
21682;DHT22;11002;48.256;10.084;2023-03-14T05:14:53;8.00;82.60
21682;DHT22;11002;48.256;10.084;2023-03-14T05:17:37;7.90;82.20
21682;DHT22;11002;48.256;10.084;2023-03-14T05:20:25;8.10;81.80
21682;DHT22;11002;48.256;10.084;2023-03-14T05:22:55;7.90;80.40
21682;DHT22;11002;48.256;10.084;2023-03-14T05:25:46;7.90;81.10
21682;DHT22;11002;48.256;10.084;2023-03-14T05:28:33;8.00;79.50
21682;DHT22;11002;48.256;10.084;2023-03-14T05:31:10;8.00;79.70
21682;DHT22;11002;48.256;10.084;2023-03-14T05:33:54;8.10;80.50
21682;DHT22;11002;48.256;10.084;2023-03-14T05:36:36;7.90;78.70
21682;DHT22;11002;48.256;10.084;2023-03-14T05:39:24;7.80;79.40
21682;DHT22;11002;48.256;10.084;2023-03-14T05:42:04;7.80;79.40
21682;DHT22;11002;48.256;10.084;2023-03-14T05:44:44;7.90;79.80
21682;DHT22;11002;48.256;10.084;2023-03-14T05:47:23;7.80;79.50
21682;DHT22;11002;48.256;10.084;2023-03-14T05:50:04;7.90;79.30
21682;DHT22;11002;48.256;10.084;2023-03-14T05:53:08;7.80;79.50
21682;DHT22;11002;48.256;10.084;2023-03-14T05:55:41;7.80;79.30
21682;DHT22;11002;48.256;10.084;2023-03-14T05:58:10;7.90;78.60
21682;DHT22;11002;48.256;10.084;2023-03-14T06:00:57;7.80;77.30
21682;DHT22;11002;48.256;10.084;2023-03-14T06:03:43;7.90;77.40
21682;DHT22;11002;48.256;10.084;2023-03-14T06:06:10;7.90;77.40
21682;DHT22;11002;48.256;10.084;2023-03-14T06:08:38;7.90;77.40
21682;DHT22;11002;48.256;10.084;2023-03-14T06:11:06;8.20;77.70
21682;DHT22;11002;48.256;10.084;2023-03-14T06:13:36;7.80;77.30
21682;DHT22;11002;48.256;10.084;2023-03-14T06:16:04;7.90;77.40
21682;DHT22;11002;48.256;10.084;2023-03-14T06:18:32;7.90;77.40
21682;DHT22;11002;48.256;10.084;2023-03-14T06:20:59;8.00;77.50
21682;DHT22;11002;48.256;10.084;2023-03-14T06:23:27;8.00;77.50
21682;DHT22;11002;48.256;10.084;2023-03-14T06:25:58;8.00;77.50
21682;DHT22;11002;48.256;10.084;2023-03-14T06:28:26;7.90;77.50
21682;DHT22;11002;48.256;10.084;2023-03-14T06:31:00;7.90;77.40
21682;DHT22;11002;48.256;10.084;2023-03-14T06:33:31;8.10;77.60
21682;DHT22;11002;48.256;10.084;2023-03-14T06:36:00;7.70;77.20
21682;DHT22;11002;48.256;10.084;2023-03-14T06:38:27;7.90;77.40
21682;DHT22;11002;48.256;10.084;2023-03-14T06:41:03;8.00;77.50
21682;DHT22;11002;48.256;10.084;2023-03-14T06:43:36;8.10;77.60
21682;DHT22;11002;48.256;10.084;2023-03-14T06:46:07;8.00;77.50
21682;DHT22;11002;48.256;10.084;2023-03-14T06:48:37;7.90;77.40
21682;DHT22;11002;48.256;10.084;2023-03-14T06:51:06;7.90;77.40
21682;DHT22;11002;48.256;10.084;2023-03-14T06:53:34;7.90;76.50
21682;DHT22;11002;48.256;10.084;2023-03-14T06:56:02;8.00;76.10
21682;DHT22;11002;48.256;10.084;2023-03-14T06:58:32;8.00;76.20
21682;DHT22;11002;48.256;10.084;2023-03-14T07:01:01;8.20;76.60
21682;DHT22;11002;48.256;10.084;2023-03-14T07:03:36;8.00;75.90
21682;DHT22;11002;48.256;10.084;2023-03-14T07:06:05;8.20;75.20
21682;DHT22;11002;48.256;10.084;2023-03-14T07:08:33;8.10;75.00
21682;DHT22;11002;48.256;10.084;2023-03-14T07:11:01;8.10;74.20
21682;DHT22;11002;48.256;10.084;2023-03-14T07:13:29;8.30;74.60
21682;DHT22;11002;48.256;10.084;2023-03-14T07:16:02;8.20;74.30
21682;DHT22;11002;48.256;10.084;2023-03-14T07:18:29;8.20;74.60
21682;DHT22;11002;48.256;10.084;2023-03-14T07:20:58;8.20;73.00
21682;DHT22;11002;48.256;10.084;2023-03-14T07:23:26;8.40;73.50
21682;DHT22;11002;48.256;10.084;2023-03-14T07:25:53;8.30;73.90
21682;DHT22;11002;48.256;10.084;2023-03-14T07:28:24;8.50;73.70
21682;DHT22;11002;48.256;10.084;2023-03-14T07:30:59;8.40;72.50
21682;DHT22;11002;48.256;10.084;2023-03-14T07:33:31;8.60;71.80
21682;DHT22;11002;48.256;10.084;2023-03-14T07:36:01;8.60;71.50
21682;DHT22;11002;48.256;10.084;2023-03-14T07:38:33;8.70;69.30
21682;DHT22;11002;48.256;10.084;2023-03-14T07:41:14;8.50;69.80
21682;DHT22;11002;48.256;10.084;2023-03-14T07:43:50;8.50;69.00
21682;DHT22;11002;48.256;10.084;2023-03-14T07:46:21;8.80;69.00
21682;DHT22;11002;48.256;10.084;2023-03-14T07:48:48;8.70;68.00
21682;DHT22;11002;48.256;10.084;2023-03-14T07:51:17;8.80;67.50
21682;DHT22;11002;48.256;10.084;2023-03-14T07:53:44;8.70;66.90
21682;DHT22;11002;48.256;10.084;2023-03-14T07:56:12;8.90;66.50
21682;DHT22;11002;48.256;10.084;2023-03-14T07:58:39;8.90;65.00
21682;DHT22;11002;48.256;10.084;2023-03-14T08:01:07;9.00;66.50
21682;DHT22;11002;48.256;10.084;2023-03-14T08:03:34;9.10;65.20
21682;DHT22;11002;48.256;10.084;2023-03-14T08:06:02;9.20;65.30
21682;DHT22;11002;48.256;10.084;2023-03-14T08:08:31;9.50;63.80
21682;DHT22;11002;48.256;10.084;2023-03-14T08:11:03;9.30;63.10
21682;DHT22;11002;48.256;10.084;2023-03-14T08:13:30;9.60;64.00
21682;DHT22;11002;48.256;10.084;2023-03-14T08:15:58;9.70;61.00
21682;DHT22;11002;48.256;10.084;2023-03-14T08:18:25;9.60;61.90
21682;DHT22;11002;48.256;10.084;2023-03-14T08:20:52;9.60;62.90
21682;DHT22;11002;48.256;10.084;2023-03-14T08:23:20;9.90;61.90
21682;DHT22;11002;48.256;10.084;2023-03-14T08:25:50;10.00;61.70
21682;DHT22;11002;48.256;10.084;2023-03-14T08:28:18;9.80;60.30
21682;DHT22;11002;48.256;10.084;2023-03-14T08:30:45;9.90;62.30
21682;DHT22;11002;48.256;10.084;2023-03-14T08:33:13;9.70;60.00
21682;DHT22;11002;48.256;10.084;2023-03-14T08:35:40;10.00;59.10
21682;DHT22;11002;48.256;10.084;2023-03-14T08:38:08;9.90;59.20
21682;DHT22;11002;48.256;10.084;2023-03-14T08:40:36;10.00;59.00
21682;DHT22;11002;48.256;10.084;2023-03-14T08:43:05;9.90;59.20
21682;DHT22;11002;48.256;10.084;2023-03-14T08:45:32;10.10;58.40
21682;DHT22;11002;48.256;10.084;2023-03-14T08:48:00;10.10;57.30
21682;DHT22;11002;48.256;10.084;2023-03-14T08:50:27;10.20;57.40
21682;DHT22;11002;48.256;10.084;2023-03-14T08:52:55;10.40;57.10
21682;DHT22;11002;48.256;10.084;2023-03-14T08:55:24;10.40;56.90
21682;DHT22;11002;48.256;10.084;2023-03-14T08:57:53;10.50;55.30
21682;DHT22;11002;48.256;10.084;2023-03-14T09:00:22;10.40;56.20
21682;DHT22;11002;48.256;10.084;2023-03-14T09:02:50;10.60;57.00
21682;DHT22;11002;48.256;10.084;2023-03-14T09:05:18;10.60;55.00
21682;DHT22;11002;48.256;10.084;2023-03-14T09:07:45;11.00;53.10
21682;DHT22;11002;48.256;10.084;2023-03-14T09:10:12;11.30;53.30
21682;DHT22;11002;48.256;10.084;2023-03-14T09:12:40;11.60;50.50
21682;DHT22;11002;48.256;10.084;2023-03-14T09:15:08;11.80;49.50
21682;DHT22;11002;48.256;10.084;2023-03-14T09:17:37;11.80;47.50
21682;DHT22;11002;48.256;10.084;2023-03-14T09:20:05;11.80;48.40
21682;DHT22;11002;48.256;10.084;2023-03-14T09:22:34;11.90;47.60
21682;DHT22;11002;48.256;10.084;2023-03-14T09:25:02;12.00;47.70
21682;DHT22;11002;48.256;10.084;2023-03-14T09:27:30;12.30;45.30
21682;DHT22;11002;48.256;10.084;2023-03-14T09:29:57;12.40;45.30
21682;DHT22;11002;48.256;10.084;2023-03-14T09:32:24;12.80;45.30
21682;DHT22;11002;48.256;10.084;2023-03-14T09:34:53;13.10;42.30
21682;DHT22;11002;48.256;10.084;2023-03-14T09:37:21;13.40;42.50
21682;DHT22;11002;48.256;10.084;2023-03-14T09:39:48;13.40;42.50
21682;DHT22;11002;48.256;10.084;2023-03-14T09:42:18;13.50;40.20
21682;DHT22;11002;48.256;10.084;2023-03-14T09:44:53;13.30;42.40
21682;DHT22;11002;48.256;10.084;2023-03-14T09:47:23;13.00;42.20
21682;DHT22;11002;48.256;10.084;2023-03-14T09:49:51;12.80;42.30
21682;DHT22;11002;48.256;10.084;2023-03-14T09:52:23;12.80;42.00
21682;DHT22;11002;48.256;10.084;2023-03-14T09:54:53;12.80;42.00
21682;DHT22;11002;48.256;10.084;2023-03-14T09:57:24;12.70;41.90
21682;DHT22;11002;48.256;10.084;2023-03-14T09:59:54;12.80;42.00
21682;DHT22;11002;48.256;10.084;2023-03-14T10:02:25;13.00;41.90
21682;DHT22;11002;48.256;10.084;2023-03-14T10:04:53;13.20;40.80
21682;DHT22;11002;48.256;10.084;2023-03-14T10:07:27;13.20;42.30
21682;DHT22;11002;48.256;10.084;2023-03-14T10:09:55;13.20;39.80
21682;DHT22;11002;48.256;10.084;2023-03-14T10:12:30;13.40;38.20
21682;DHT22;11002;48.256;10.084;2023-03-14T10:15:02;13.70;40.90
21682;DHT22;11002;48.256;10.084;2023-03-14T10:17:38;13.80;36.80
21682;DHT22;11002;48.256;10.084;2023-03-14T10:20:15;13.80;37.80
21682;DHT22;11002;48.256;10.084;2023-03-14T10:22:55;13.90;37.80
21682;DHT22;11002;48.256;10.084;2023-03-14T10:25:27;13.90;37.90
21682;DHT22;11002;48.256;10.084;2023-03-14T10:27:55;14.20;38.80
21682;DHT22;11002;48.256;10.084;2023-03-14T10:30:38;14.50;35.80
21682;DHT22;11002;48.256;10.084;2023-03-14T10:33:11;14.30;36.80
21682;DHT22;11002;48.256;10.084;2023-03-14T10:35:41;14.30;35.30
21682;DHT22;11002;48.256;10.084;2023-03-14T10:38:16;13.90;36.40
21682;DHT22;11002;48.256;10.084;2023-03-14T10:40:47;14.10;37.00
21682;DHT22;11002;48.256;10.084;2023-03-14T10:43:17;14.00;34.30
21682;DHT22;11002;48.256;10.084;2023-03-14T10:45:52;13.80;34.60
21682;DHT22;11002;48.256;10.084;2023-03-14T10:48:30;13.40;36.00
21682;DHT22;11002;48.256;10.084;2023-03-14T10:51:03;13.10;36.20
21682;DHT22;11002;48.256;10.084;2023-03-14T10:53:39;13.00;36.30
21682;DHT22;11002;48.256;10.084;2023-03-14T10:56:11;13.00;37.50
21682;DHT22;11002;48.256;10.084;2023-03-14T10:58:41;13.00;36.20
21682;DHT22;11002;48.256;10.084;2023-03-14T11:01:19;13.20;37.60
21682;DHT22;11002;48.256;10.084;2023-03-14T11:03:54;13.50;35.30
21682;DHT22;11002;48.256;10.084;2023-03-14T11:06:28;14.10;35.60
21682;DHT22;11002;48.256;10.084;2023-03-14T11:09:04;14.70;34.90
21682;DHT22;11002;48.256;10.084;2023-03-14T11:11:34;15.00;30.70
21682;DHT22;11002;48.256;10.084;2023-03-14T11:14:11;14.60;31.50
21682;DHT22;11002;48.256;10.084;2023-03-14T11:16:50;14.40;32.80
21682;DHT22;11002;48.256;10.084;2023-03-14T11:22:21;14.10;33.80
21682;DHT22;11002;48.256;10.084;2023-03-14T11:25:06;14.20;32.70
21682;DHT22;11002;48.256;10.084;2023-03-14T11:27:42;14.40;35.30
21682;DHT22;11002;48.256;10.084;2023-03-14T11:30:18;14.40;34.60
21682;DHT22;11002;48.256;10.084;2023-03-14T11:32:48;14.30;30.80
21682;DHT22;11002;48.256;10.084;2023-03-14T11:35:22;13.90;33.70
21682;DHT22;11002;48.256;10.084;2023-03-14T11:37:54;13.60;35.30
21682;DHT22;11002;48.256;10.084;2023-03-14T11:40:26;13.40;36.00
21682;DHT22;11002;48.256;10.084;2023-03-14T11:43:04;13.30;35.90
21682;DHT22;11002;48.256;10.084;2023-03-14T11:45:35;13.00;35.60
21682;DHT22;11002;48.256;10.084;2023-03-14T11:48:33;12.80;36.40
21682;DHT22;11002;48.256;10.084;2023-03-14T11:51:07;12.70;37.20
21682;DHT22;11002;48.256;10.084;2023-03-14T11:53:43;12.50;37.10
21682;DHT22;11002;48.256;10.084;2023-03-14T11:56:19;12.40;39.20
21682;DHT22;11002;48.256;10.084;2023-03-14T11:58:56;12.30;38.80
21682;DHT22;11002;48.256;10.084;2023-03-14T12:01:54;12.40;38.80
21682;DHT22;11002;48.256;10.084;2023-03-14T12:04:39;12.30;41.50
21682;DHT22;11002;48.256;10.084;2023-03-14T12:07:14;12.30;40.00
21682;DHT22;11002;48.256;10.084;2023-03-14T12:09:45;12.30;40.40
21682;DHT22;11002;48.256;10.084;2023-03-14T12:12:19;12.30;41.50
21682;DHT22;11002;48.256;10.084;2023-03-14T12:14:53;12.20;41.50
21682;DHT22;11002;48.256;10.084;2023-03-14T12:17:24;12.10;42.90
21682;DHT22;11002;48.256;10.084;2023-03-14T12:20:04;11.90;45.40
21682;DHT22;11002;48.256;10.084;2023-03-14T12:22:35;11.70;47.40
21682;DHT22;11002;48.256;10.084;2023-03-14T12:25:06;11.70;49.30
21682;DHT22;11002;48.256;10.084;2023-03-14T12:27:47;11.80;52.40
21682;DHT22;11002;48.256;10.084;2023-03-14T12:30:25;11.80;50.80
21682;DHT22;11002;48.256;10.084;2023-03-14T12:36:18;11.30;49.40
21682;DHT22;11002;48.256;10.084;2023-03-14T12:39:05;11.10;48.70
21682;DHT22;11002;48.256;10.084;2023-03-14T12:41:40;11.10;53.20
21682;DHT22;11002;48.256;10.084;2023-03-14T12:44:40;10.50;55.70
21682;DHT22;11002;48.256;10.084;2023-03-14T12:47:43;10.30;55.80
21682;DHT22;11002;48.256;10.084;2023-03-14T12:50:25;10.20;57.70
21682;DHT22;11002;48.256;10.084;2023-03-14T12:55:58;9.90;63.70
21682;DHT22;11002;48.256;10.084;2023-03-14T12:58:32;10.10;64.50
21682;DHT22;11002;48.256;10.084;2023-03-14T13:01:05;10.00;65.00
21682;DHT22;11002;48.256;10.084;2023-03-14T13:03:39;9.90;62.50
21682;DHT22;11002;48.256;10.084;2023-03-14T13:06:09;10.00;60.90
21682;DHT22;11002;48.256;10.084;2023-03-14T13:08:39;10.00;58.30
21682;DHT22;11002;48.256;10.084;2023-03-14T13:11:10;9.90;60.50
21682;DHT22;11002;48.256;10.084;2023-03-14T13:13:44;10.30;60.10
21682;DHT22;11002;48.256;10.084;2023-03-14T13:16:16;10.30;59.00
21682;DHT22;11002;48.256;10.084;2023-03-14T13:18:45;10.00;58.30
21682;DHT22;11002;48.256;10.084;2023-03-14T13:21:15;10.00;59.30
21682;DHT22;11002;48.256;10.084;2023-03-14T13:23:56;9.80;60.70
21682;DHT22;11002;48.256;10.084;2023-03-14T13:26:25;9.70;59.00
21682;DHT22;11002;48.256;10.084;2023-03-14T13:28:58;9.70;60.20
21682;DHT22;11002;48.256;10.084;2023-03-14T13:31:27;9.80;59.10
21682;DHT22;11002;48.256;10.084;2023-03-14T13:34:00;9.60;62.20
21682;DHT22;11002;48.256;10.084;2023-03-14T13:36:28;9.60;64.40
21682;DHT22;11002;48.256;10.084;2023-03-14T13:38:56;9.40;65.50
21682;DHT22;11002;48.256;10.084;2023-03-14T13:41:25;9.60;65.70
21682;DHT22;11002;48.256;10.084;2023-03-14T13:44:00;9.50;65.50
21682;DHT22;11002;48.256;10.084;2023-03-14T13:46:29;9.20;69.00
21682;DHT22;11002;48.256;10.084;2023-03-14T13:48:59;9.10;72.00
21682;DHT22;11002;48.256;10.084;2023-03-14T13:51:28;8.90;81.70
21682;DHT22;11002;48.256;10.084;2023-03-14T13:53:59;8.70;84.40
21682;DHT22;11002;48.256;10.084;2023-03-14T13:56:41;8.40;90.90
21682;DHT22;11002;48.256;10.084;2023-03-14T13:59:21;8.40;91.60
21682;DHT22;11002;48.256;10.084;2023-03-14T14:01:50;8.10;92.10
21682;DHT22;11002;48.256;10.084;2023-03-14T14:04:20;7.90;90.80
21682;DHT22;11002;48.256;10.084;2023-03-14T14:06:52;7.80;89.50
21682;DHT22;11002;48.256;10.084;2023-03-14T14:09:23;7.70;90.00
21682;DHT22;11002;48.256;10.084;2023-03-14T14:11:54;7.70;90.90
21682;DHT22;11002;48.256;10.084;2023-03-14T14:14:27;7.70;90.80
21682;DHT22;11002;48.256;10.084;2023-03-14T14:16:58;7.70;90.00
21682;DHT22;11002;48.256;10.084;2023-03-14T14:19:30;7.70;86.90
21682;DHT22;11002;48.256;10.084;2023-03-14T14:22:00;8.00;90.10
21682;DHT22;11002;48.256;10.084;2023-03-14T14:24:30;8.00;90.10
21682;DHT22;11002;48.256;10.084;2023-03-14T14:27:00;8.10;85.10
21682;DHT22;11002;48.256;10.084;2023-03-14T14:29:30;8.10;79.50
21682;DHT22;11002;48.256;10.084;2023-03-14T14:32:11;8.10;71.00
21682;DHT22;11002;48.256;10.084;2023-03-14T14:34:40;8.10;67.20
21682;DHT22;11002;48.256;10.084;2023-03-14T14:37:22;8.30;67.80
21682;DHT22;11002;48.256;10.084;2023-03-14T14:39:53;8.30;65.70
21682;DHT22;11002;48.256;10.084;2023-03-14T14:42:24;8.50;66.30
21682;DHT22;11002;48.256;10.084;2023-03-14T14:44:52;8.70;64.80
21682;DHT22;11002;48.256;10.084;2023-03-14T14:47:24;8.90;61.80
21682;DHT22;11002;48.256;10.084;2023-03-14T14:49:53;8.60;61.20
21682;DHT22;11002;48.256;10.084;2023-03-14T14:52:22;8.70;58.20
21682;DHT22;11002;48.256;10.084;2023-03-14T14:54:59;8.50;62.30
21682;DHT22;11002;48.256;10.084;2023-03-14T14:57:30;8.60;61.30
21682;DHT22;11002;48.256;10.084;2023-03-14T15:00:04;8.60;59.80
21682;DHT22;11002;48.256;10.084;2023-03-14T15:02:37;8.50;59.60
21682;DHT22;11002;48.256;10.084;2023-03-14T15:05:12;8.70;58.20
21682;DHT22;11002;48.256;10.084;2023-03-14T15:07:40;8.50;58.10
21682;DHT22;11002;48.256;10.084;2023-03-14T15:10:11;8.40;58.00
21682;DHT22;11002;48.256;10.084;2023-03-14T15:12:40;8.30;56.00
21682;DHT22;11002;48.256;10.084;2023-03-14T15:15:09;8.30;51.80
21682;DHT22;11002;48.256;10.084;2023-03-14T15:17:38;8.20;53.30
21682;DHT22;11002;48.256;10.084;2023-03-14T15:20:10;8.30;51.80
21682;DHT22;11002;48.256;10.084;2023-03-14T15:22:39;8.20;54.20
21682;DHT22;11002;48.256;10.084;2023-03-14T15:25:07;8.40;53.00
21682;DHT22;11002;48.256;10.084;2023-03-14T15:27:36;8.20;51.70
21682;DHT22;11002;48.256;10.084;2023-03-14T15:30:10;8.20;49.50
21682;DHT22;11002;48.256;10.084;2023-03-14T15:32:42;8.50;49.30
21682;DHT22;11002;48.256;10.084;2023-03-14T15:35:11;8.30;49.30
21682;DHT22;11002;48.256;10.084;2023-03-14T15:37:40;8.20;48.20
21682;DHT22;11002;48.256;10.084;2023-03-14T15:40:12;8.30;50.70
21682;DHT22;11002;48.256;10.084;2023-03-14T15:42:40;8.00;47.90
21682;DHT22;11002;48.256;10.084;2023-03-14T15:45:09;8.10;48.90
21682;DHT22;11002;48.256;10.084;2023-03-14T15:47:37;7.70;47.40
21682;DHT22;11002;48.256;10.084;2023-03-14T15:50:08;7.60;47.30
21682;DHT22;11002;48.256;10.084;2023-03-14T15:52:35;7.80;48.50
21682;DHT22;11002;48.256;10.084;2023-03-14T15:55:03;7.60;47.40
21682;DHT22;11002;48.256;10.084;2023-03-14T15:57:32;7.60;47.10
21682;DHT22;11002;48.256;10.084;2023-03-14T15:59:59;7.60;48.20
21682;DHT22;11002;48.256;10.084;2023-03-14T16:02:27;7.60;46.80
21682;DHT22;11002;48.256;10.084;2023-03-14T16:04:54;7.50;46.50
21682;DHT22;11002;48.256;10.084;2023-03-14T16:07:23;7.70;45.00
21682;DHT22;11002;48.256;10.084;2023-03-14T16:09:51;7.60;44.10